createdAt,value
2023-04-27T00:04:45.117Z,2.47
2023-04-27T00:09:47.488Z,2.50
2023-04-27T00:14:51.094Z,2.93
2023-04-27T00:19:53.773Z,2.50
2023-04-27T00:24:55.462Z,2.80
2023-04-27T00:29:58.639Z,3.30
2023-04-27T00:35:01.188Z,3.03
2023-04-27T00:40:05.366Z,3.33
2023-04-27T00:45:10.692Z,3.53
2023-04-27T00:50:13.046Z,3.07
2023-04-27T00:55:15.532Z,2.90
2023-04-27T01:00:19.381Z,3.40
2023-04-27T01:05:22.155Z,3.87
2023-04-27T01:10:24.420Z,3.93
2023-04-27T01:15:28.544Z,4.23
2023-04-27T01:20:32.157Z,3.70
2023-04-27T01:25:35.375Z,4.03
2023-04-27T01:30:37.430Z,4.10
2023-04-27T01:35:39.620Z,4.60
2023-04-27T01:40:43.183Z,4.10
2023-04-27T01:45:45.404Z,4.43
2023-04-27T01:50:47.619Z,4.30
2023-04-27T01:55:50.768Z,4.03
2023-04-27T02:00:52.745Z,3.70
2023-04-27T02:05:55.002Z,4.17
2023-04-27T02:10:58.305Z,3.70
2023-04-27T02:16:02.285Z,4.60
2023-04-27T02:21:10.226Z,3.93
2023-04-27T02:26:19.602Z,4.20
2023-04-27T02:31:21.774Z,4.13
2023-04-27T02:36:23.807Z,4.90
2023-04-27T02:41:28.306Z,5.10
2023-04-27T02:46:30.548Z,5.30
2023-04-27T02:51:32.496Z,5.70
2023-04-27T02:56:36.163Z,5.80
2023-04-27T03:01:38.271Z,5.73
2023-04-27T03:06:40.019Z,6.57
2023-04-27T03:11:43.620Z,6.00
2023-04-27T03:16:45.856Z,6.47
2023-04-27T03:21:47.923Z,7.00
2023-04-27T03:26:51.686Z,7.10
2023-04-27T03:31:53.691Z,6.63
2023-04-27T03:36:56.352Z,6.37
2023-04-27T03:41:59.522Z,6.70
2023-04-27T03:47:01.889Z,4.67
2023-04-27T03:52:04.553Z,4.90
2023-04-27T03:57:08.281Z,5.60
2023-04-27T04:02:10.432Z,5.10
2023-04-27T04:07:12.461Z,5.40
2023-04-27T04:12:16.500Z,5.30
2023-04-27T04:17:18.868Z,5.13
2023-04-27T04:22:21.608Z,4.17
2023-04-27T04:27:25.260Z,4.00
2023-04-27T04:32:31.658Z,4.00
2023-04-27T04:37:36.124Z,4.93
2023-04-27T04:42:39.606Z,5.40
2023-04-27T04:47:41.792Z,4.40
2023-04-27T04:52:44.158Z,4.50
2023-04-27T04:58:01.807Z,4.07
2023-04-27T05:03:08.336Z,4.13
2023-04-27T05:08:22.996Z,4.33
2023-04-27T05:13:27.051Z,4.90
2023-04-27T05:18:29.203Z,4.93
2023-04-27T05:23:31.588Z,5.93
2023-04-27T05:28:35.043Z,5.50
2023-04-27T05:33:37.309Z,5.73
2023-04-27T05:38:40.607Z,5.37
2023-04-27T05:43:44.461Z,3.87
2023-04-27T05:48:46.513Z,4.40
2023-04-27T05:53:48.279Z,4.30
2023-04-27T05:58:52.063Z,4.23
2023-04-27T06:03:54.732Z,3.63
2023-04-27T06:08:57.068Z,3.67
2023-04-27T06:14:00.369Z,3.67
2023-04-27T06:19:02.390Z,3.60
2023-04-27T06:24:04.604Z,3.13
2023-04-27T06:29:08.612Z,3.37
2023-04-27T06:34:10.638Z,4.13
2023-04-27T06:39:13.115Z,3.10
2023-04-27T06:44:16.584Z,3.50
2023-04-27T06:49:18.581Z,3.33
2023-04-27T06:54:21.050Z,2.73
2023-04-27T06:59:24.722Z,3.33
2023-04-27T07:04:26.850Z,3.33
2023-04-27T07:09:29.475Z,4.23
2023-04-27T07:14:33.939Z,3.40
2023-04-27T07:19:37.918Z,3.63
2023-04-27T07:24:40.222Z,2.90
2023-04-27T07:29:43.824Z,3.00
2023-04-27T07:34:53.325Z,3.20
2023-04-27T07:39:56.343Z,4.20
2023-04-27T07:44:59.977Z,4.67
2023-04-27T07:50:02.216Z,3.80
2023-04-27T07:55:04.839Z,3.50
2023-04-27T08:00:12.234Z,2.90
2023-04-27T08:05:15.682Z,1.77
2023-04-27T08:10:18.297Z,2.53
2023-04-27T08:15:23.284Z,2.77
2023-04-27T08:20:25.739Z,2.60
2023-04-27T08:25:28.176Z,2.87
2023-04-27T08:30:32.158Z,2.47
2023-04-27T08:35:34.895Z,2.87
2023-04-27T08:40:37.262Z,3.40
2023-04-27T08:45:49.026Z,3.17
2023-04-27T08:50:52.936Z,2.40
2023-04-27T08:55:56.815Z,2.53
2023-04-27T09:01:06.072Z,2.70
2023-04-27T09:06:08.929Z,2.20
2023-04-27T09:11:11.127Z,1.93
2023-04-27T09:16:15.423Z,2.10
2023-04-27T09:21:24.660Z,2.17
2023-04-27T09:26:27.731Z,1.93
2023-04-27T09:31:35.151Z,1.87
2023-04-27T09:36:38.174Z,2.13
2023-04-27T09:41:40.366Z,2.40
2023-04-27T09:46:46.594Z,2.40
2023-04-27T09:51:48.549Z,2.80
2023-04-27T09:57:01.790Z,2.83
2023-04-27T10:02:23.546Z,2.45
2023-04-27T10:07:28.762Z,2.47
2023-04-27T10:12:36.948Z,2.40
2023-04-27T10:17:40.356Z,2.30
2023-04-27T10:22:43.349Z,2.05
2023-04-27T10:27:46.434Z,2.00
2023-04-27T10:32:58.041Z,2.20
2023-04-27T10:38:08.640Z,2.20
2023-04-27T10:43:11.929Z,1.75
2023-04-27T10:48:16.433Z,1.50
2023-04-27T10:53:18.996Z,1.42
2023-04-27T10:58:28.137Z,1.40
2023-04-27T11:03:39.238Z,1.65
2023-04-27T11:08:46.461Z,1.42
2023-04-27T11:13:53.087Z,1.50
2023-04-27T11:18:59.170Z,1.60
2023-04-27T11:24:06.488Z,1.90
2023-04-27T11:29:12.766Z,1.60
2023-04-27T11:34:19.803Z,1.92
2023-04-27T11:39:23.087Z,1.90
2023-04-27T11:44:28.856Z,2.10
2023-04-27T11:49:32.729Z,1.98
2023-04-27T11:54:35.318Z,1.83
2023-04-27T11:59:37.709Z,6.63
2023-04-27T12:04:41.809Z,6.65
2023-04-27T12:09:43.987Z,2.28
2023-04-27T12:14:46.668Z,1.38
2023-04-27T12:19:49.955Z,1.20
2023-04-27T12:24:52.901Z,1.13
2023-04-27T12:29:55.301Z,1.42
2023-04-27T12:34:58.568Z,1.20
2023-04-27T12:40:00.634Z,1.10
2023-04-27T12:45:03.305Z,1.30
2023-04-27T12:50:07.912Z,1.48
2023-04-27T12:55:28.902Z,0.95
2023-04-27T13:00:34.472Z,0.93
2023-04-27T13:05:38.178Z,1.25
2023-04-27T13:10:41.514Z,1.35
2023-04-27T13:15:43.657Z,0.90
2023-04-27T13:20:48.712Z,0.90
2023-04-27T13:25:51.096Z,1.00
2023-04-27T13:30:53.523Z,1.10
2023-04-27T13:35:57.052Z,1.20
2023-04-27T13:40:59.404Z,1.00
2023-04-27T13:46:02.635Z,1.20
2023-04-27T13:51:06.186Z,1.20
2023-04-27T13:56:08.310Z,0.90
2023-04-27T14:01:10.604Z,0.90
2023-04-27T14:06:14.081Z,1.13
2023-04-27T14:11:16.431Z,1.10
2023-04-27T14:16:18.911Z,1.10
2023-04-27T14:21:22.512Z,0.90
2023-04-27T14:26:24.695Z,1.10
2023-04-27T14:31:29.609Z,0.90
2023-04-27T14:36:33.615Z,0.90
2023-04-27T14:41:36.818Z,1.02
2023-04-27T14:46:39.198Z,0.80
2023-04-27T14:51:43.611Z,0.90
2023-04-27T14:56:46.598Z,0.80
2023-04-27T15:01:49.014Z,1.20
2023-04-27T15:06:52.611Z,0.90
2023-04-27T15:11:54.619Z,0.80
2023-04-27T15:16:56.957Z,0.80
2023-04-27T15:22:00.400Z,1.20
2023-04-27T15:27:03.198Z,0.90
2023-04-27T15:32:05.692Z,0.95
2023-04-27T15:37:09.292Z,1.00
2023-04-27T15:42:11.412Z,1.10
2023-04-27T15:47:14.601Z,0.77
2023-04-27T15:52:18.301Z,1.02
2023-04-27T15:57:20.622Z,1.00
2023-04-27T16:02:22.803Z,1.02
2023-04-27T16:07:26.551Z,1.17
2023-04-27T16:12:29.510Z,1.10
2023-04-27T16:17:35.950Z,1.10
2023-04-27T16:22:39.792Z,1.40
2023-04-27T16:27:42.780Z,1.40
2023-04-27T16:32:44.693Z,1.55
2023-04-27T16:37:49.830Z,1.67
2023-04-27T16:42:52.323Z,1.50
2023-04-27T16:47:55.576Z,1.10
2023-04-27T16:53:06.013Z,1.25
2023-04-27T16:58:08.305Z,1.30
2023-04-27T17:03:11.358Z,1.25
2023-04-27T17:08:15.130Z,1.77
2023-04-27T17:13:17.526Z,1.20
2023-04-27T17:18:20.000Z,1.30
2023-04-27T17:23:23.496Z,1.50
2023-04-27T17:28:25.569Z,1.60
2023-04-27T17:33:27.828Z,1.40
2023-04-27T17:38:31.415Z,1.70
2023-04-27T17:43:33.788Z,1.80
2023-04-27T17:48:36.499Z,2.40
2023-04-27T17:53:40.971Z,1.70
2023-04-27T17:58:43.590Z,1.13
2023-04-27T18:03:46.037Z,1.60
2023-04-27T18:08:49.789Z,1.53
2023-04-27T18:13:51.897Z,1.73
2023-04-27T18:18:56.417Z,1.87
2023-04-27T18:24:03.563Z,1.83
2023-04-27T18:29:05.801Z,1.60
2023-04-27T18:34:08.756Z,1.60
2023-04-27T18:39:12.592Z,1.93
2023-04-27T18:44:16.401Z,2.43
2023-04-27T18:49:19.268Z,2.33
2023-04-27T18:54:23.354Z,2.67
2023-04-27T18:59:26.456Z,4.63
2023-04-27T19:04:29.877Z,4.73
2023-04-27T19:09:34.034Z,5.13
2023-04-27T19:14:36.897Z,3.30
2023-04-27T19:19:39.380Z,4.03
2023-04-27T19:24:42.645Z,6.37
2023-04-27T19:29:53.236Z,5.77
2023-04-27T19:34:56.434Z,3.97
2023-04-27T19:40:00.634Z,4.83
2023-04-27T19:45:04.198Z,3.70
2023-04-27T19:50:08.101Z,3.73
2023-04-27T19:55:12.532Z,3.93
2023-04-27T20:00:15.957Z,3.20
2023-04-27T20:05:19.213Z,2.40
2023-04-27T20:10:23.315Z,3.60
2023-04-27T20:15:25.664Z,3.30
2023-04-27T20:20:28.392Z,2.43
2023-04-27T20:25:32.033Z,1.67
2023-04-27T20:30:34.176Z,1.50
2023-04-27T20:35:37.190Z,1.30
2023-04-27T20:40:42.369Z,1.47
2023-04-27T20:45:44.717Z,2.00
2023-04-27T20:50:47.105Z,1.30
2023-04-27T20:55:50.762Z,1.60
2023-04-27T21:00:52.856Z,1.50
2023-04-27T21:05:56.006Z,1.93
2023-04-27T21:10:59.887Z,2.20
2023-04-27T21:16:02.342Z,2.60
2023-04-27T21:21:04.652Z,2.53
2023-04-27T21:26:09.031Z,2.10
2023-04-27T21:31:11.516Z,2.50
2023-04-27T21:36:13.832Z,2.83
2023-04-27T21:41:20.664Z,2.63
2023-04-27T21:46:24.409Z,2.20
2023-04-27T21:51:26.589Z,1.57
2023-04-27T21:56:31.382Z,2.13
2023-04-27T22:01:33.489Z,2.10
2023-04-27T22:06:35.998Z,1.60
2023-04-27T22:11:39.486Z,1.90
2023-04-27T22:16:42.409Z,1.90
2023-04-27T22:21:44.943Z,2.50
2023-04-27T22:26:49.393Z,2.70
2023-04-27T22:31:52.391Z,1.73
2023-04-27T22:36:54.866Z,1.50
2023-04-27T22:41:59.062Z,1.40
2023-04-27T22:47:02.636Z,1.43
2023-04-27T22:52:05.151Z,1.40
2023-04-27T22:57:08.654Z,1.40
2023-04-27T23:02:11.304Z,1.30
2023-04-27T23:07:17.479Z,1.33
2023-04-27T23:12:21.017Z,1.00
2023-04-27T23:17:23.533Z,1.20
2023-04-27T23:22:25.732Z,1.40
2023-04-27T23:27:29.085Z,1.43
2023-04-27T23:32:31.328Z,1.77
2023-04-27T23:37:33.372Z,2.30
2023-04-27T23:42:36.976Z,2.50
2023-04-27T23:47:38.946Z,2.37
2023-04-27T23:52:41.239Z,2.27
2023-04-27T23:57:45.048Z,2.30
